sensor_id;sensor_type;location;lat;lon;timestamp;temperature;humidity
8778;DHT22;4425;50.872;4.712;2022-12-07T00:01:21;5.60;99.90
8778;DHT22;4425;50.872;4.712;2022-12-07T00:04:11;5.60;99.90
8778;DHT22;4425;50.872;4.712;2022-12-07T00:06:44;5.50;99.90
8778;DHT22;4425;50.872;4.712;2022-12-07T00:09:16;5.50;99.90
8778;DHT22;4425;50.872;4.712;2022-12-07T00:11:48;5.40;99.90
8778;DHT22;4425;50.872;4.712;2022-12-07T00:14:17;5.40;99.90
8778;DHT22;4425;50.872;4.712;2022-12-07T00:16:49;5.40;99.90
8778;DHT22;4425;50.872;4.712;2022-12-07T00:19:16;5.40;99.90
8778;DHT22;4425;50.872;4.712;2022-12-07T00:21:43;5.60;99.90
8778;DHT22;4425;50.872;4.712;2022-12-07T00:24:11;5.70;99.90
8778;DHT22;4425;50.872;4.712;2022-12-07T00:26:41;5.80;99.90
8778;DHT22;4425;50.872;4.712;2022-12-07T00:29:13;5.80;99.90
8778;DHT22;4425;50.872;4.712;2022-12-07T00:31:41;5.90;99.90
8778;DHT22;4425;50.872;4.712;2022-12-07T00:34:13;5.90;99.90
8778;DHT22;4425;50.872;4.712;2022-12-07T00:36:41;5.80;99.90
8778;DHT22;4425;50.872;4.712;2022-12-07T00:39:08;5.80;99.90
8778;DHT22;4425;50.872;4.712;2022-12-07T00:41:35;5.80;99.90
8778;DHT22;4425;50.872;4.712;2022-12-07T00:44:04;5.80;99.90
8778;DHT22;4425;50.872;4.712;2022-12-07T00:46:31;5.70;99.90
8778;DHT22;4425;50.872;4.712;2022-12-07T00:48:59;5.60;99.90
8778;DHT22;4425;50.872;4.712;2022-12-07T00:51:26;5.60;99.90
8778;DHT22;4425;50.872;4.712;2022-12-07T00:53:54;5.60;99.90
8778;DHT22;4425;50.872;4.712;2022-12-07T00:56:23;5.50;99.90
8778;DHT22;4425;50.872;4.712;2022-12-07T00:58:53;5.60;99.90
8778;DHT22;4425;50.872;4.712;2022-12-07T01:01:24;5.60;99.90
8778;DHT22;4425;50.872;4.712;2022-12-07T01:04:04;5.60;99.90
8778;DHT22;4425;50.872;4.712;2022-12-07T01:06:33;5.70;99.90
8778;DHT22;4425;50.872;4.712;2022-12-07T01:09:16;5.60;99.90
8778;DHT22;4425;50.872;4.712;2022-12-07T01:11:43;5.60;99.90
8778;DHT22;4425;50.872;4.712;2022-12-07T01:14:10;5.60;99.90
8778;DHT22;4425;50.872;4.712;2022-12-07T01:16:40;5.60;99.90
8778;DHT22;4425;50.872;4.712;2022-12-07T01:19:08;5.60;99.90
8778;DHT22;4425;50.872;4.712;2022-12-07T01:21:35;5.50;99.90
8778;DHT22;4425;50.872;4.712;2022-12-07T01:24:04;5.50;99.90
8778;DHT22;4425;50.872;4.712;2022-12-07T01:26:32;5.40;99.90
8778;DHT22;4425;50.872;4.712;2022-12-07T01:28:59;5.30;99.90
8778;DHT22;4425;50.872;4.712;2022-12-07T01:31:27;5.20;99.90
8778;DHT22;4425;50.872;4.712;2022-12-07T01:34:00;5.10;99.90
8778;DHT22;4425;50.872;4.712;2022-12-07T01:36:30;5.10;99.90
8778;DHT22;4425;50.872;4.712;2022-12-07T01:39:04;5.10;99.90
8778;DHT22;4425;50.872;4.712;2022-12-07T01:41:33;5.20;99.90
8778;DHT22;4425;50.872;4.712;2022-12-07T01:44:19;5.20;99.90
8778;DHT22;4425;50.872;4.712;2022-12-07T01:46:47;5.20;99.90
8778;DHT22;4425;50.872;4.712;2022-12-07T01:49:22;5.20;99.90
8778;DHT22;4425;50.872;4.712;2022-12-07T01:51:54;5.20;99.90
8778;DHT22;4425;50.872;4.712;2022-12-07T01:54:25;5.20;99.90
8778;DHT22;4425;50.872;4.712;2022-12-07T01:56:54;5.20;99.90
8778;DHT22;4425;50.872;4.712;2022-12-07T01:59:24;5.20;99.90
8778;DHT22;4425;50.872;4.712;2022-12-07T02:01:53;5.20;99.90
8778;DHT22;4425;50.872;4.712;2022-12-07T02:04:23;5.10;99.90
8778;DHT22;4425;50.872;4.712;2022-12-07T02:06:50;5.20;99.90
8778;DHT22;4425;50.872;4.712;2022-12-07T02:09:18;5.20;99.90
8778;DHT22;4425;50.872;4.712;2022-12-07T02:11:45;5.30;99.90
8778;DHT22;4425;50.872;4.712;2022-12-07T02:14:14;5.20;99.90
8778;DHT22;4425;50.872;4.712;2022-12-07T02:16:51;5.20;99.90
8778;DHT22;4425;50.872;4.712;2022-12-07T02:25:23;5.20;99.90
8778;DHT22;4425;50.872;4.712;2022-12-07T02:28:00;5.20;99.90
8778;DHT22;4425;50.872;4.712;2022-12-07T02:30:35;5.30;99.90
8778;DHT22;4425;50.872;4.712;2022-12-07T02:33:11;5.20;99.90
8778;DHT22;4425;50.872;4.712;2022-12-07T02:35:42;5.20;99.90
8778;DHT22;4425;50.872;4.712;2022-12-07T02:38:14;5.20;99.90
8778;DHT22;4425;50.872;4.712;2022-12-07T02:40:46;5.20;99.90
8778;DHT22;4425;50.872;4.712;2022-12-07T02:43:19;5.30;99.90
8778;DHT22;4425;50.872;4.712;2022-12-07T02:45:59;5.30;99.90
8778;DHT22;4425;50.872;4.712;2022-12-07T02:52:37;5.30;99.90
8778;DHT22;4425;50.872;4.712;2022-12-07T02:55:07;5.30;99.90
8778;DHT22;4425;50.872;4.712;2022-12-07T02:57:45;5.30;99.90
8778;DHT22;4425;50.872;4.712;2022-12-07T03:00:18;5.20;99.90
8778;DHT22;4425;50.872;4.712;2022-12-07T03:02:54;5.20;99.90
8778;DHT22;4425;50.872;4.712;2022-12-07T03:05:50;5.20;99.90
8778;DHT22;4425;50.872;4.712;2022-12-07T03:08:23;5.20;99.90
8778;DHT22;4425;50.872;4.712;2022-12-07T03:10:57;5.20;99.90
8778;DHT22;4425;50.872;4.712;2022-12-07T03:13:29;5.30;99.90
8778;DHT22;4425;50.872;4.712;2022-12-07T03:16:03;5.20;99.90
8778;DHT22;4425;50.872;4.712;2022-12-07T03:18:37;5.20;99.90
8778;DHT22;4425;50.872;4.712;2022-12-07T03:21:08;5.10;99.90
8778;DHT22;4425;50.872;4.712;2022-12-07T03:23:38;5.10;99.90
8778;DHT22;4425;50.872;4.712;2022-12-07T03:26:09;5.10;99.90
8778;DHT22;4425;50.872;4.712;2022-12-07T03:28:42;5.10;99.90
8778;DHT22;4425;50.872;4.712;2022-12-07T03:31:14;5.20;99.90
8778;DHT22;4425;50.872;4.712;2022-12-07T03:33:49;5.20;99.90
8778;DHT22;4425;50.872;4.712;2022-12-07T03:36:22;5.20;99.90
8778;DHT22;4425;50.872;4.712;2022-12-07T03:38:55;5.20;99.90
8778;DHT22;4425;50.872;4.712;2022-12-07T03:41:27;5.30;99.90
8778;DHT22;4425;50.872;4.712;2022-12-07T03:43:57;5.30;99.90
8778;DHT22;4425;50.872;4.712;2022-12-07T03:46:32;5.20;99.90
8778;DHT22;4425;50.872;4.712;2022-12-07T03:49:08;5.20;99.90
8778;DHT22;4425;50.872;4.712;2022-12-07T03:51:40;5.20;99.90
8778;DHT22;4425;50.872;4.712;2022-12-07T03:54:26;5.10;99.90
8778;DHT22;4425;50.872;4.712;2022-12-07T03:56:59;5.10;99.90
8778;DHT22;4425;50.872;4.712;2022-12-07T03:59:28;5.10;99.90
8778;DHT22;4425;50.872;4.712;2022-12-07T04:02:02;5.10;99.90
8778;DHT22;4425;50.872;4.712;2022-12-07T04:04:31;5.10;99.90
8778;DHT22;4425;50.872;4.712;2022-12-07T04:06:58;5.20;99.90
8778;DHT22;4425;50.872;4.712;2022-12-07T04:09:26;5.10;99.90
8778;DHT22;4425;50.872;4.712;2022-12-07T04:11:53;5.10;99.90
8778;DHT22;4425;50.872;4.712;2022-12-07T04:14:21;5.10;99.90
8778;DHT22;4425;50.872;4.712;2022-12-07T04:16:49;5.10;99.90
8778;DHT22;4425;50.872;4.712;2022-12-07T04:19:18;5.10;99.90
8778;DHT22;4425;50.872;4.712;2022-12-07T04:21:47;5.00;99.90
8778;DHT22;4425;50.872;4.712;2022-12-07T04:24:15;5.00;99.90
8778;DHT22;4425;50.872;4.712;2022-12-07T04:26:43;4.80;99.90
8778;DHT22;4425;50.872;4.712;2022-12-07T04:29:12;4.70;99.90
8778;DHT22;4425;50.872;4.712;2022-12-07T04:31:39;4.60;99.90
8778;DHT22;4425;50.872;4.712;2022-12-07T04:34:07;4.50;99.90
8778;DHT22;4425;50.872;4.712;2022-12-07T04:36:35;4.50;99.90
8778;DHT22;4425;50.872;4.712;2022-12-07T04:39:04;4.40;99.90
8778;DHT22;4425;50.872;4.712;2022-12-07T04:41:33;4.40;99.90
8778;DHT22;4425;50.872;4.712;2022-12-07T04:44:03;4.40;99.90
8778;DHT22;4425;50.872;4.712;2022-12-07T04:46:33;4.40;99.90
8778;DHT22;4425;50.872;4.712;2022-12-07T04:49:00;4.40;99.90
8778;DHT22;4425;50.872;4.712;2022-12-07T04:51:29;4.30;99.90
8778;DHT22;4425;50.872;4.712;2022-12-07T04:53:56;4.30;99.90
8778;DHT22;4425;50.872;4.712;2022-12-07T04:56:25;4.30;99.90
8778;DHT22;4425;50.872;4.712;2022-12-07T04:58:53;4.30;99.90
8778;DHT22;4425;50.872;4.712;2022-12-07T05:01:21;4.40;99.90
8778;DHT22;4425;50.872;4.712;2022-12-07T05:03:49;4.40;99.90
8778;DHT22;4425;50.872;4.712;2022-12-07T05:06:17;4.40;99.90
8778;DHT22;4425;50.872;4.712;2022-12-07T05:08:44;4.30;99.90
8778;DHT22;4425;50.872;4.712;2022-12-07T05:11:17;4.30;99.90
8778;DHT22;4425;50.872;4.712;2022-12-07T05:14:00;4.20;99.90
8778;DHT22;4425;50.872;4.712;2022-12-07T05:16:27;4.10;99.90
8778;DHT22;4425;50.872;4.712;2022-12-07T05:18:55;4.10;99.90
8778;DHT22;4425;50.872;4.712;2022-12-07T05:21:22;4.10;99.90
8778;DHT22;4425;50.872;4.712;2022-12-07T05:23:49;4.10;99.90
8778;DHT22;4425;50.872;4.712;2022-12-07T05:26:17;4.10;99.90
8778;DHT22;4425;50.872;4.712;2022-12-07T05:28:50;4.30;99.90
8778;DHT22;4425;50.872;4.712;2022-12-07T05:31:18;4.30;99.90
8778;DHT22;4425;50.872;4.712;2022-12-07T05:33:46;4.40;99.90
8778;DHT22;4425;50.872;4.712;2022-12-07T05:36:13;4.40;99.90
8778;DHT22;4425;50.872;4.712;2022-12-07T05:38:40;4.40;99.90
8778;DHT22;4425;50.872;4.712;2022-12-07T05:41:09;4.50;99.90
8778;DHT22;4425;50.872;4.712;2022-12-07T05:44:01;4.50;99.90
8778;DHT22;4425;50.872;4.712;2022-12-07T05:46:31;4.50;99.90
8778;DHT22;4425;50.872;4.712;2022-12-07T05:48:59;4.60;99.90
8778;DHT22;4425;50.872;4.712;2022-12-07T05:51:26;4.70;99.90
8778;DHT22;4425;50.872;4.712;2022-12-07T05:53:53;4.70;99.90
8778;DHT22;4425;50.872;4.712;2022-12-07T05:56:20;4.80;99.90
8778;DHT22;4425;50.872;4.712;2022-12-07T05:58:48;4.80;99.90
8778;DHT22;4425;50.872;4.712;2022-12-07T06:01:35;4.80;99.90
8778;DHT22;4425;50.872;4.712;2022-12-07T06:04:02;4.80;99.90
8778;DHT22;4425;50.872;4.712;2022-12-07T06:06:30;4.70;99.90
8778;DHT22;4425;50.872;4.712;2022-12-07T06:09:00;4.80;99.90
8778;DHT22;4425;50.872;4.712;2022-12-07T06:11:37;4.70;99.90
8778;DHT22;4425;50.872;4.712;2022-12-07T06:14:25;4.70;99.90
8778;DHT22;4425;50.872;4.712;2022-12-07T06:16:54;4.70;99.90
8778;DHT22;4425;50.872;4.712;2022-12-07T06:19:21;4.70;99.90
8778;DHT22;4425;50.872;4.712;2022-12-07T06:21:48;4.70;99.90
8778;DHT22;4425;50.872;4.712;2022-12-07T06:24:16;4.70;99.90
8778;DHT22;4425;50.872;4.712;2022-12-07T06:26:45;4.70;99.90
8778;DHT22;4425;50.872;4.712;2022-12-07T06:29:13;4.70;99.90
8778;DHT22;4425;50.872;4.712;2022-12-07T06:31:40;4.70;99.90
8778;DHT22;4425;50.872;4.712;2022-12-07T06:34:13;4.70;99.90
8778;DHT22;4425;50.872;4.712;2022-12-07T06:36:40;4.70;99.90
8778;DHT22;4425;50.872;4.712;2022-12-07T06:39:08;4.60;99.90
8778;DHT22;4425;50.872;4.712;2022-12-07T06:41:38;4.60;99.90
8778;DHT22;4425;50.872;4.712;2022-12-07T06:47:23;4.70;99.90
8778;DHT22;4425;50.872;4.712;2022-12-07T06:49:54;4.60;99.90
8778;DHT22;4425;50.872;4.712;2022-12-07T06:52:21;4.60;99.90
8778;DHT22;4425;50.872;4.712;2022-12-07T06:54:49;4.60;99.90
8778;DHT22;4425;50.872;4.712;2022-12-07T06:57:16;4.50;99.90
8778;DHT22;4425;50.872;4.712;2022-12-07T06:59:45;4.60;99.90
8778;DHT22;4425;50.872;4.712;2022-12-07T07:02:12;4.50;99.90
8778;DHT22;4425;50.872;4.712;2022-12-07T07:04:39;4.50;99.90
8778;DHT22;4425;50.872;4.712;2022-12-07T07:07:08;4.40;99.90
8778;DHT22;4425;50.872;4.712;2022-12-07T07:09:36;4.40;99.90
8778;DHT22;4425;50.872;4.712;2022-12-07T07:12:03;4.50;99.90
8778;DHT22;4425;50.872;4.712;2022-12-07T07:14:30;4.50;99.90
8778;DHT22;4425;50.872;4.712;2022-12-07T07:16:58;4.60;99.90
8778;DHT22;4425;50.872;4.712;2022-12-07T07:19:26;4.60;99.90
8778;DHT22;4425;50.872;4.712;2022-12-07T07:21:54;4.80;99.90
8778;DHT22;4425;50.872;4.712;2022-12-07T07:24:27;4.80;99.90
8778;DHT22;4425;50.872;4.712;2022-12-07T07:26:54;4.90;99.90
8778;DHT22;4425;50.872;4.712;2022-12-07T07:29:24;4.90;99.90
8778;DHT22;4425;50.872;4.712;2022-12-07T07:31:51;4.80;99.90
8778;DHT22;4425;50.872;4.712;2022-12-07T07:34:20;4.80;99.90
8778;DHT22;4425;50.872;4.712;2022-12-07T07:36:48;4.70;99.90
8778;DHT22;4425;50.872;4.712;2022-12-07T07:39:15;4.80;99.90
8778;DHT22;4425;50.872;4.712;2022-12-07T07:41:46;4.80;99.90
8778;DHT22;4425;50.872;4.712;2022-12-07T07:44:13;4.80;99.90
8778;DHT22;4425;50.872;4.712;2022-12-07T07:46:41;4.70;99.90
8778;DHT22;4425;50.872;4.712;2022-12-07T07:49:09;4.70;99.90
8778;DHT22;4425;50.872;4.712;2022-12-07T07:51:36;4.70;99.90
8778;DHT22;4425;50.872;4.712;2022-12-07T07:54:05;4.80;99.90
8778;DHT22;4425;50.872;4.712;2022-12-07T07:56:32;4.80;99.90
8778;DHT22;4425;50.872;4.712;2022-12-07T07:59:01;4.90;99.90
8778;DHT22;4425;50.872;4.712;2022-12-07T08:01:29;4.70;99.90
8778;DHT22;4425;50.872;4.712;2022-12-07T08:03:56;4.80;99.90
8778;DHT22;4425;50.872;4.712;2022-12-07T08:06:23;4.80;99.90
8778;DHT22;4425;50.872;4.712;2022-12-07T08:08:51;4.80;99.90
8778;DHT22;4425;50.872;4.712;2022-12-07T08:11:19;4.80;99.90
8778;DHT22;4425;50.872;4.712;2022-12-07T08:13:46;4.80;99.90
8778;DHT22;4425;50.872;4.712;2022-12-07T08:16:22;4.80;99.90
8778;DHT22;4425;50.872;4.712;2022-12-07T08:18:57;4.70;99.90
8778;DHT22;4425;50.872;4.712;2022-12-07T08:21:24;4.70;99.90
8778;DHT22;4425;50.872;4.712;2022-12-07T08:23:52;4.70;99.90
8778;DHT22;4425;50.872;4.712;2022-12-07T08:26:19;4.70;99.90
8778;DHT22;4425;50.872;4.712;2022-12-07T08:28:46;4.70;99.90
8778;DHT22;4425;50.872;4.712;2022-12-07T08:31:15;4.80;99.90
8778;DHT22;4425;50.872;4.712;2022-12-07T08:33:46;4.70;99.90
8778;DHT22;4425;50.872;4.712;2022-12-07T08:36:14;4.70;99.90
8778;DHT22;4425;50.872;4.712;2022-12-07T08:38:43;4.70;99.90
8778;DHT22;4425;50.872;4.712;2022-12-07T08:41:13;4.70;99.90
8778;DHT22;4425;50.872;4.712;2022-12-07T08:43:40;4.70;99.90
8778;DHT22;4425;50.872;4.712;2022-12-07T08:46:11;4.80;99.90
8778;DHT22;4425;50.872;4.712;2022-12-07T08:48:46;4.80;99.90
8778;DHT22;4425;50.872;4.712;2022-12-07T08:51:16;4.90;99.90
8778;DHT22;4425;50.872;4.712;2022-12-07T08:53:54;4.90;99.90
8778;DHT22;4425;50.872;4.712;2022-12-07T08:56:24;5.00;99.90
8778;DHT22;4425;50.872;4.712;2022-12-07T08:58:52;5.10;99.90
8778;DHT22;4425;50.872;4.712;2022-12-07T09:01:20;5.20;99.90
8778;DHT22;4425;50.872;4.712;2022-12-07T09:03:49;5.30;99.90
8778;DHT22;4425;50.872;4.712;2022-12-07T09:06:16;5.50;99.90
8778;DHT22;4425;50.872;4.712;2022-12-07T09:08:46;5.50;99.90
8778;DHT22;4425;50.872;4.712;2022-12-07T09:11:14;5.60;99.90
8778;DHT22;4425;50.872;4.712;2022-12-07T09:13:41;5.60;99.90
8778;DHT22;4425;50.872;4.712;2022-12-07T09:16:08;5.60;99.90
8778;DHT22;4425;50.872;4.712;2022-12-07T09:18:36;5.60;99.90
8778;DHT22;4425;50.872;4.712;2022-12-07T09:21:05;5.70;99.90
8778;DHT22;4425;50.872;4.712;2022-12-07T09:23:32;5.70;99.90
8778;DHT22;4425;50.872;4.712;2022-12-07T09:25:59;5.80;99.90
8778;DHT22;4425;50.872;4.712;2022-12-07T09:28:26;5.80;99.90
8778;DHT22;4425;50.872;4.712;2022-12-07T09:30:53;5.90;99.90
8778;DHT22;4425;50.872;4.712;2022-12-07T09:33:20;5.80;99.90
8778;DHT22;4425;50.872;4.712;2022-12-07T09:35:48;5.90;99.90
8778;DHT22;4425;50.872;4.712;2022-12-07T09:38:19;5.80;99.90
8778;DHT22;4425;50.872;4.712;2022-12-07T09:40:46;5.80;99.90
8778;DHT22;4425;50.872;4.712;2022-12-07T09:43:17;5.80;99.90
8778;DHT22;4425;50.872;4.712;2022-12-07T09:45:45;5.90;99.90
8778;DHT22;4425;50.872;4.712;2022-12-07T09:48:17;6.00;99.90
8778;DHT22;4425;50.872;4.712;2022-12-07T09:50:45;6.10;99.90
8778;DHT22;4425;50.872;4.712;2022-12-07T09:53:18;6.20;99.90
8778;DHT22;4425;50.872;4.712;2022-12-07T09:55:47;6.30;99.90
8778;DHT22;4425;50.872;4.712;2022-12-07T09:58:20;6.40;99.90
8778;DHT22;4425;50.872;4.712;2022-12-07T10:00:48;6.50;99.90
8778;DHT22;4425;50.872;4.712;2022-12-07T10:03:16;6.70;99.90
8778;DHT22;4425;50.872;4.712;2022-12-07T10:05:46;6.60;99.90
8778;DHT22;4425;50.872;4.712;2022-12-07T10:08:14;6.70;99.90
8778;DHT22;4425;50.872;4.712;2022-12-07T10:10:45;6.70;99.90
8778;DHT22;4425;50.872;4.712;2022-12-07T10:13:15;6.80;99.90
8778;DHT22;4425;50.872;4.712;2022-12-07T10:15:49;6.90;99.90
8778;DHT22;4425;50.872;4.712;2022-12-07T10:18:26;7.00;99.90
8778;DHT22;4425;50.872;4.712;2022-12-07T10:21:11;7.10;99.90
8778;DHT22;4425;50.872;4.712;2022-12-07T10:23:40;7.00;99.90
8778;DHT22;4425;50.872;4.712;2022-12-07T10:26:27;7.00;99.90
8778;DHT22;4425;50.872;4.712;2022-12-07T10:28:55;7.00;99.90
8778;DHT22;4425;50.872;4.712;2022-12-07T10:31:25;7.10;99.90
8778;DHT22;4425;50.872;4.712;2022-12-07T10:33:53;7.00;99.90
8778;DHT22;4425;50.872;4.712;2022-12-07T10:36:23;7.10;99.90
8778;DHT22;4425;50.872;4.712;2022-12-07T10:38:52;7.00;99.90
8778;DHT22;4425;50.872;4.712;2022-12-07T10:41:23;7.10;99.90
8778;DHT22;4425;50.872;4.712;2022-12-07T10:43:53;7.10;99.90
8778;DHT22;4425;50.872;4.712;2022-12-07T10:49:55;7.20;99.90
8778;DHT22;4425;50.872;4.712;2022-12-07T11:02:19;7.60;99.90
8778;DHT22;4425;50.872;4.712;2022-12-07T11:05:03;7.60;99.90
8778;DHT22;4425;50.872;4.712;2022-12-07T11:07:42;7.70;99.90
8778;DHT22;4425;50.872;4.712;2022-12-07T11:22:03;7.40;99.90
8778;DHT22;4425;50.872;4.712;2022-12-07T11:24:42;7.40;99.90
8778;DHT22;4425;50.872;4.712;2022-12-07T11:27:22;7.50;99.90
8778;DHT22;4425;50.872;4.712;2022-12-07T11:30:13;7.40;99.90
8778;DHT22;4425;50.872;4.712;2022-12-07T11:33:12;7.50;99.90
8778;DHT22;4425;50.872;4.712;2022-12-07T11:36:04;7.40;99.90
8778;DHT22;4425;50.872;4.712;2022-12-07T11:38:42;7.50;99.90
8778;DHT22;4425;50.872;4.712;2022-12-07T11:41:12;7.60;99.90
8778;DHT22;4425;50.872;4.712;2022-12-07T11:44:05;7.60;99.90
8778;DHT22;4425;50.872;4.712;2022-12-07T11:46:50;7.80;99.90
8778;DHT22;4425;50.872;4.712;2022-12-07T11:49:32;7.80;99.90
8778;DHT22;4425;50.872;4.712;2022-12-07T11:52:17;7.80;99.90
8778;DHT22;4425;50.872;4.712;2022-12-07T11:54:53;7.80;99.90
8778;DHT22;4425;50.872;4.712;2022-12-07T11:57:32;7.80;99.90
8778;DHT22;4425;50.872;4.712;2022-12-07T12:00:17;7.70;99.90
8778;DHT22;4425;50.872;4.712;2022-12-07T12:02:51;7.60;99.90
8778;DHT22;4425;50.872;4.712;2022-12-07T12:05:45;7.50;99.90
8778;DHT22;4425;50.872;4.712;2022-12-07T12:08:22;7.50;99.90
8778;DHT22;4425;50.872;4.712;2022-12-07T12:10:58;7.60;99.90
8778;DHT22;4425;50.872;4.712;2022-12-07T12:14:08;7.70;99.90
8778;DHT22;4425;50.872;4.712;2022-12-07T12:19:58;7.80;99.90
8778;DHT22;4425;50.872;4.712;2022-12-07T12:22:34;7.80;99.90
8778;DHT22;4425;50.872;4.712;2022-12-07T12:25:19;7.70;99.90
8778;DHT22;4425;50.872;4.712;2022-12-07T12:28:01;7.80;99.90
8778;DHT22;4425;50.872;4.712;2022-12-07T12:30:36;7.70;99.90
8778;DHT22;4425;50.872;4.712;2022-12-07T12:33:14;7.70;99.90
8778;DHT22;4425;50.872;4.712;2022-12-07T12:35:46;7.80;99.90
8778;DHT22;4425;50.872;4.712;2022-12-07T12:39:08;7.80;99.90
8778;DHT22;4425;50.872;4.712;2022-12-07T12:48:27;7.80;99.90
8778;DHT22;4425;50.872;4.712;2022-12-07T12:51:36;7.70;99.90
8778;DHT22;4425;50.872;4.712;2022-12-07T12:54:04;7.80;99.90
8778;DHT22;4425;50.872;4.712;2022-12-07T12:56:40;7.80;99.90
8778;DHT22;4425;50.872;4.712;2022-12-07T12:59:28;7.80;99.90
8778;DHT22;4425;50.872;4.712;2022-12-07T13:02:20;7.90;99.90
8778;DHT22;4425;50.872;4.712;2022-12-07T13:04:55;7.70;99.90
8778;DHT22;4425;50.872;4.712;2022-12-07T13:08:03;7.70;99.90
8778;DHT22;4425;50.872;4.712;2022-12-07T13:10:42;7.60;99.90
8778;DHT22;4425;50.872;4.712;2022-12-07T13:13:37;7.50;99.90
8778;DHT22;4425;50.872;4.712;2022-12-07T13:16:39;7.40;99.90
8778;DHT22;4425;50.872;4.712;2022-12-07T13:22:54;7.50;99.90
8778;DHT22;4425;50.872;4.712;2022-12-07T13:25:33;7.60;99.90
8778;DHT22;4425;50.872;4.712;2022-12-07T13:28:10;7.80;99.90
8778;DHT22;4425;50.872;4.712;2022-12-07T13:30:46;8.00;99.90
8778;DHT22;4425;50.872;4.712;2022-12-07T13:33:15;8.00;99.90
8778;DHT22;4425;50.872;4.712;2022-12-07T13:35:44;8.10;99.90
8778;DHT22;4425;50.872;4.712;2022-12-07T13:38:28;8.00;99.90
8778;DHT22;4425;50.872;4.712;2022-12-07T13:41:02;8.10;99.90
8778;DHT22;4425;50.872;4.712;2022-12-07T13:43:29;8.20;99.90
8778;DHT22;4425;50.872;4.712;2022-12-07T13:45:57;8.30;99.90
8778;DHT22;4425;50.872;4.712;2022-12-07T13:48:30;8.20;99.90
8778;DHT22;4425;50.872;4.712;2022-12-07T13:51:02;8.10;99.90
8778;DHT22;4425;50.872;4.712;2022-12-07T13:53:51;8.00;99.90
8778;DHT22;4425;50.872;4.712;2022-12-07T13:56:28;7.90;99.90
8778;DHT22;4425;50.872;4.712;2022-12-07T13:59:04;7.90;99.90
8778;DHT22;4425;50.872;4.712;2022-12-07T14:01:35;7.80;99.90
8778;DHT22;4425;50.872;4.712;2022-12-07T14:04:29;7.80;99.90
8778;DHT22;4425;50.872;4.712;2022-12-07T14:06:57;7.80;99.90
8778;DHT22;4425;50.872;4.712;2022-12-07T14:09:28;7.70;99.90
8778;DHT22;4425;50.872;4.712;2022-12-07T14:11:57;7.70;99.90
8778;DHT22;4425;50.872;4.712;2022-12-07T14:14:30;7.70;99.90
8778;DHT22;4425;50.872;4.712;2022-12-07T14:17:08;7.70;99.90
8778;DHT22;4425;50.872;4.712;2022-12-07T14:19:42;7.60;99.90
8778;DHT22;4425;50.872;4.712;2022-12-07T14:22:20;7.60;99.90
8778;DHT22;4425;50.872;4.712;2022-12-07T14:24:49;7.60;99.90
8778;DHT22;4425;50.872;4.712;2022-12-07T14:27:19;7.60;99.90
8778;DHT22;4425;50.872;4.712;2022-12-07T14:29:46;7.60;99.90
8778;DHT22;4425;50.872;4.712;2022-12-07T14:32:20;7.60;99.90
8778;DHT22;4425;50.872;4.712;2022-12-07T14:34:56;7.50;99.90
8778;DHT22;4425;50.872;4.712;2022-12-07T14:37:24;7.50;99.90
8778;DHT22;4425;50.872;4.712;2022-12-07T14:39:53;7.50;99.90
8778;DHT22;4425;50.872;4.712;2022-12-07T14:42:26;7.40;99.90
8778;DHT22;4425;50.872;4.712;2022-12-07T14:44:55;7.50;99.90
8778;DHT22;4425;50.872;4.712;2022-12-07T14:47:23;7.40;99.90
8778;DHT22;4425;50.872;4.712;2022-12-07T14:49:50;7.40;99.90
8778;DHT22;4425;50.872;4.712;2022-12-07T14:52:24;7.30;99.90
8778;DHT22;4425;50.872;4.712;2022-12-07T14:54:57;7.20;99.90
8778;DHT22;4425;50.872;4.712;2022-12-07T14:57:25;7.20;99.90
8778;DHT22;4425;50.872;4.712;2022-12-07T14:59:53;7.10;99.90
8778;DHT22;4425;50.872;4.712;2022-12-07T15:02:21;7.10;99.90
8778;DHT22;4425;50.872;4.712;2022-12-07T15:04:49;7.10;99.90
8778;DHT22;4425;50.872;4.712;2022-12-07T15:07:19;7.10;99.90
8778;DHT22;4425;50.872;4.712;2022-12-07T15:09:47;7.00;99.90
8778;DHT22;4425;50.872;4.712;2022-12-07T15:12:23;7.00;99.90
8778;DHT22;4425;50.872;4.712;2022-12-07T15:14:51;7.00;99.90
8778;DHT22;4425;50.872;4.712;2022-12-07T15:17:19;6.90;99.90
8778;DHT22;4425;50.872;4.712;2022-12-07T15:19:46;6.80;99.90
8778;DHT22;4425;50.872;4.712;2022-12-07T15:22:13;6.80;99.90
8778;DHT22;4425;50.872;4.712;2022-12-07T15:24:42;6.70;99.90
8778;DHT22;4425;50.872;4.712;2022-12-07T15:27:12;6.60;99.90
8778;DHT22;4425;50.872;4.712;2022-12-07T15:29:45;6.50;99.90
8778;DHT22;4425;50.872;4.712;2022-12-07T15:32:14;6.40;99.90
8778;DHT22;4425;50.872;4.712;2022-12-07T15:34:43;6.30;99.90
8778;DHT22;4425;50.872;4.712;2022-12-07T15:37:10;6.30;99.90
8778;DHT22;4425;50.872;4.712;2022-12-07T15:39:37;6.20;99.90
8778;DHT22;4425;50.872;4.712;2022-12-07T15:42:05;6.10;99.90
8778;DHT22;4425;50.872;4.712;2022-12-07T15:44:32;6.10;99.90
8778;DHT22;4425;50.872;4.712;2022-12-07T15:47:19;6.00;99.90
8778;DHT22;4425;50.872;4.712;2022-12-07T15:49:47;6.10;99.90
8778;DHT22;4425;50.872;4.712;2022-12-07T15:52:15;6.10;99.90
8778;DHT22;4425;50.872;4.712;2022-12-07T15:54:44;6.00;99.90
8778;DHT22;4425;50.872;4.712;2022-12-07T15:57:13;6.10;99.90
8778;DHT22;4425;50.872;4.712;2022-12-07T15:59:41;6.00;99.90
8778;DHT22;4425;50.872;4.712;2022-12-07T16:02:09;6.10;99.90
8778;DHT22;4425;50.872;4.712;2022-12-07T16:04:39;6.10;99.90
8778;DHT22;4425;50.872;4.712;2022-12-07T16:07:06;6.00;99.90
8778;DHT22;4425;50.872;4.712;2022-12-07T16:09:37;6.00;99.90
8778;DHT22;4425;50.872;4.712;2022-12-07T16:12:06;6.10;99.90
8778;DHT22;4425;50.872;4.712;2022-12-07T16:14:39;6.10;99.90
8778;DHT22;4425;50.872;4.712;2022-12-07T16:17:07;6.10;99.90
8778;DHT22;4425;50.872;4.712;2022-12-07T16:19:41;6.20;99.90
8778;DHT22;4425;50.872;4.712;2022-12-07T16:22:09;6.30;99.90
8778;DHT22;4425;50.872;4.712;2022-12-07T16:24:36;6.20;99.90
8778;DHT22;4425;50.872;4.712;2022-12-07T16:27:03;6.20;99.90
8778;DHT22;4425;50.872;4.712;2022-12-07T16:29:30;6.20;99.90
8778;DHT22;4425;50.872;4.712;2022-12-07T16:31:57;6.20;99.90
8778;DHT22;4425;50.872;4.712;2022-12-07T16:34:24;6.20;99.90
8778;DHT22;4425;50.872;4.712;2022-12-07T16:36:53;6.20;99.90
8778;DHT22;4425;50.872;4.712;2022-12-07T16:39:21;6.20;99.90
8778;DHT22;4425;50.872;4.712;2022-12-07T16:41:49;6.20;99.90
8778;DHT22;4425;50.872;4.712;2022-12-07T16:44:19;6.30;99.90
8778;DHT22;4425;50.872;4.712;2022-12-07T16:46:46;6.30;99.90
8778;DHT22;4425;50.872;4.712;2022-12-07T16:49:15;6.20;99.90
8778;DHT22;4425;50.872;4.712;2022-12-07T16:51:49;6.20;99.90
8778;DHT22;4425;50.872;4.712;2022-12-07T16:54:22;6.20;99.90
8778;DHT22;4425;50.872;4.712;2022-12-07T16:56:49;6.20;99.90
8778;DHT22;4425;50.872;4.712;2022-12-07T16:59:17;6.20;99.90
8778;DHT22;4425;50.872;4.712;2022-12-07T17:01:49;6.20;99.90
8778;DHT22;4425;50.872;4.712;2022-12-07T17:04:17;6.20;99.90
8778;DHT22;4425;50.872;4.712;2022-12-07T17:06:45;6.20;99.90
8778;DHT22;4425;50.872;4.712;2022-12-07T17:09:13;6.20;99.90
8778;DHT22;4425;50.872;4.712;2022-12-07T17:11:44;6.20;99.90
8778;DHT22;4425;50.872;4.712;2022-12-07T17:14:12;6.20;99.90
8778;DHT22;4425;50.872;4.712;2022-12-07T17:16:57;6.20;99.90
8778;DHT22;4425;50.872;4.712;2022-12-07T17:19:31;6.20;99.90
8778;DHT22;4425;50.872;4.712;2022-12-07T17:22:06;6.20;99.90
8778;DHT22;4425;50.872;4.712;2022-12-07T17:24:40;6.20;99.90
8778;DHT22;4425;50.872;4.712;2022-12-07T17:27:29;6.20;99.90
8778;DHT22;4425;50.872;4.712;2022-12-07T17:29:57;6.20;99.90
8778;DHT22;4425;50.872;4.712;2022-12-07T17:32:29;6.20;99.90
8778;DHT22;4425;50.872;4.712;2022-12-07T17:34:56;6.20;99.90
8778;DHT22;4425;50.872;4.712;2022-12-07T17:37:26;6.20;99.90
8778;DHT22;4425;50.872;4.712;2022-12-07T17:40:08;6.20;99.90